Time;durP1;ratioP1;P1;durP2;ratioP2;P2;SDS_P1;SDS_P2;PMS_P1;PMS_P2;Temp;Humidity;BMP_temperature;BMP_pressure;BME280_temperature;BME280_humidity;BME280_pressure;Samples;Min_cycle;Max_cycle;Signal;HPM_P1;HPM_P2
2022/02/28 00:02:21;;;;;;;9.32;5.47;;;2.30;99.90;;;;;;5034386;28;20405;-50
2022/02/28 00:04:46;;;;;;;13.00;5.47;;;2.20;99.90;;;;;;5034263;28;20053;-48
2022/02/28 00:07:12;;;;;;;11.63;5.93;;;2.10;99.90;;;;;;5033989;28;20057;-48
2022/02/28 00:09:38;;;;;;;14.00;6.28;;;2.00;99.90;;;;;;5034207;28;20048;-49
2022/02/28 00:12:04;;;;;;;15.80;6.25;;;2.00;99.90;;;;;;5050237;28;20536;-51
2022/02/28 00:14:29;;;;;;;17.23;6.00;;;1.90;99.90;;;;;;5052681;28;20052;-49
2022/02/28 00:16:55;;;;;;;14.15;6.00;;;1.80;99.90;;;;;;5053959;28;20040;-49
2022/02/28 00:19:20;;;;;;;13.55;5.85;;;1.70;99.90;;;;;;5053861;28;20426;-49
2022/02/28 00:21:47;;;;;;;14.82;6.03;;;1.70;99.90;;;;;;5053845;28;20402;-49
2022/02/28 00:24:14;;;;;;;11.35;6.10;;;1.70;99.90;;;;;;5053541;28;20564;-48
2022/02/28 00:26:40;;;;;;;15.43;6.93;;;1.70;99.90;;;;;;5053759;28;20481;-49
2022/02/28 00:29:05;;;;;;;13.43;6.63;;;1.70;99.90;;;;;;5053995;28;20041;-49
2022/02/28 00:31:31;;;;;;;16.05;6.68;;;1.70;99.90;;;;;;5051734;28;20045;-48
2022/02/28 00:33:57;;;;;;;13.73;6.20;;;1.70;99.90;;;;;;5049995;28;20099;-48
2022/02/28 00:36:22;;;;;;;13.68;6.22;;;1.70;99.90;;;;;;5040859;28;20087;-49
2022/02/28 00:38:48;;;;;;;13.50;6.05;;;1.70;99.90;;;;;;5042549;28;20064;-51
2022/02/28 00:41:14;;;;;;;14.52;6.68;;;1.70;99.90;;;;;;5053189;28;20405;-48
2022/02/28 00:43:40;;;;;;;14.65;6.53;;;1.60;99.90;;;;;;5053186;28;20056;-49
2022/02/28 00:46:06;;;;;;;13.48;6.43;;;1.60;99.90;;;;;;5053353;28;20053;-49
2022/02/28 00:48:31;;;;;;;14.07;6.03;;;1.60;99.90;;;;;;5052355;28;20036;-49
2022/02/28 00:50:57;;;;;;;13.70;6.68;;;1.60;99.90;;;;;;5053135;28;20048;-49
2022/02/28 00:53:22;;;;;;;17.17;7.43;;;1.50;99.90;;;;;;5053012;28;20036;-49
2022/02/28 00:55:48;;;;;;;16.63;7.20;;;1.50;99.90;;;;;;5052848;28;20485;-50
2022/02/28 00:58:13;;;;;;;14.48;6.53;;;1.50;99.90;;;;;;5051651;28;20168;-48
2022/02/28 01:00:39;;;;;;;14.52;6.03;;;1.60;99.90;;;;;;5048015;28;20037;-48
2022/02/28 01:03:05;;;;;;;16.30;6.90;;;1.70;99.90;;;;;;5034763;28;20074;-53
2022/02/28 01:05:31;;;;;;;14.30;7.03;;;1.70;99.90;;;;;;5033311;28;20041;-50
2022/02/28 01:07:56;;;;;;;14.70;6.90;;;1.70;99.90;;;;;;5036588;28;20068;-48
2022/02/28 01:10:22;;;;;;;13.38;7.05;;;1.70;99.90;;;;;;5052687;28;20052;-48
2022/02/28 01:12:50;;;;;;;14.50;6.72;;;1.70;99.90;;;;;;5050748;28;20037;-48
2022/02/28 01:15:16;;;;;;;14.38;6.60;;;1.80;99.90;;;;;;5051383;28;20520;-48
2022/02/28 01:17:42;;;;;;;15.93;7.68;;;1.90;99.90;;;;;;5052825;28;20064;-49
2022/02/28 01:20:10;;;;;;;16.15;6.97;;;1.80;99.90;;;;;;5052872;28;20126;-49
2022/02/28 01:22:36;;;;;;;15.75;7.40;;;1.90;99.90;;;;;;5051283;28;20048;-52
2022/02/28 01:25:02;;;;;;;15.73;7.18;;;2.00;99.90;;;;;;5052550;28;20045;-50
2022/02/28 01:27:28;;;;;;;18.90;7.15;;;2.00;99.90;;;;;;5051515;28;20103;-50
2022/02/28 01:29:54;;;;;;;16.92;7.53;;;1.90;99.90;;;;;;5052339;28;20045;-49
2022/02/28 01:32:19;;;;;;;14.30;7.25;;;1.90;99.90;;;;;;5052514;28;20567;-49
2022/02/28 01:34:45;;;;;;;12.68;7.25;;;1.90;99.90;;;;;;5052513;28;20040;-48
2022/02/28 01:37:10;;;;;;;14.50;6.82;;;1.90;99.90;;;;;;5052163;28;20033;-48
2022/02/28 01:39:36;;;;;;;12.48;6.63;;;2.00;99.90;;;;;;5052236;28;20398;-48
2022/02/28 01:42:02;;;;;;;14.18;7.35;;;2.00;99.90;;;;;;5051823;28;20048;-49
2022/02/28 01:44:28;;;;;;;14.68;7.60;;;2.00;99.90;;;;;;5052003;28;20045;-49
2022/02/28 01:46:56;;;;;;;15.32;7.00;;;2.00;99.90;;;;;;5052115;28;20520;-49
2022/02/28 01:49:21;;;;;;;13.38;7.10;;;2.00;99.90;;;;;;5052186;28;20045;-49
2022/02/28 01:51:47;;;;;;;15.63;7.72;;;2.00;99.90;;;;;;5052093;28;20045;-48
2022/02/28 01:54:12;;;;;;;15.43;7.38;;;1.90;99.90;;;;;;5051953;28;20037;-49
2022/02/28 01:56:38;;;;;;;16.65;7.32;;;1.90;99.90;;;;;;5050800;28;20040;-49
2022/02/28 01:59:04;;;;;;;16.25;7.18;;;1.80;99.90;;;;;;5052028;28;20484;-48
2022/02/28 02:01:31;;;;;;;14.18;7.20;;;1.80;99.90;;;;;;5052065;28;20487;-49
2022/02/28 02:03:57;;;;;;;14.68;7.32;;;1.80;99.90;;;;;;5051906;28;20064;-49
2022/02/28 02:06:22;;;;;;;15.70;6.95;;;1.80;99.90;;;;;;5051759;28;20508;-48
2022/02/28 02:08:48;;;;;;;14.63;6.97;;;1.80;99.90;;;;;;5051588;28;20041;-50
2022/02/28 02:11:14;;;;;;;12.70;7.07;;;1.70;99.90;;;;;;5049741;28;20041;-52
2022/02/28 02:13:40;;;;;;;15.32;7.20;;;1.70;99.90;;;;;;5034063;28;20079;-52
2022/02/28 02:16:05;;;;;;;17.13;7.40;;;1.80;99.90;;;;;;5050422;28;20076;-50
2022/02/28 02:18:31;;;;;;;16.00;6.68;;;1.80;99.90;;;;;;5039573;28;20041;-49
2022/02/28 02:20:57;;;;;;;16.80;7.80;;;1.80;99.90;;;;;;5056083;28;20037;-49
2022/02/28 02:23:24;;;;;;;13.77;7.40;;;1.80;99.90;;;;;;5050421;28;20414;-48
2022/02/28 02:25:50;;;;;;;13.98;7.10;;;1.80;99.90;;;;;;5050523;28;20060;-49
2022/02/28 02:28:19;;;;;;;13.88;7.35;;;1.70;99.90;;;;;;5051580;28;20043;-49
2022/02/28 02:30:53;;;;;;;15.88;8.15;;;1.70;99.90;;;;;;5051728;28;20049;-50
2022/02/28 02:33:20;;;;;;;14.10;7.45;;;1.70;99.90;;;;;;5051335;28;20067;-49
2022/02/28 02:35:52;;;;;;;16.35;7.68;;;1.70;99.90;;;;;;5050380;28;20041;-51
2022/02/28 02:38:17;;;;;;;15.90;7.57;;;1.60;99.90;;;;;;5050670;28;20037;-52
2022/02/28 02:40:43;;;;;;;19.52;7.85;;;1.60;99.90;;;;;;5051477;28;20516;-50
2022/02/28 02:43:09;;;;;;;15.60;7.07;;;1.60;99.90;;;;;;5049858;28;20034;-49
2022/02/28 02:45:35;;;;;;;15.77;8.05;;;1.60;99.90;;;;;;5063063;28;20028;-49
2022/02/28 02:48:18;;;;;;;16.85;8.35;;;1.50;99.90;;;;;;5071143;28;20086;-49
2022/02/28 02:50:44;;;;;;;15.63;8.25;;;1.50;99.90;;;;;;5062967;28;20418;-48
2022/02/28 02:53:11;;;;;;;15.38;7.78;;;1.40;99.90;;;;;;5035734;28;20029;-49
2022/02/28 02:55:36;;;;;;;17.05;8.15;;;1.40;99.90;;;;;;5051239;28;20037;-51
2022/02/28 02:58:03;;;;;;;15.82;8.18;;;1.30;99.90;;;;;;5049733;28;20468;-49
2022/02/28 03:00:29;;;;;;;15.48;8.07;;;1.30;99.90;;;;;;5031269;28;20029;-48
2022/02/28 03:02:54;;;;;;;15.57;7.78;;;1.30;99.90;;;;;;5031303;28;20118;-48
2022/02/28 03:05:20;;;;;;;18.30;7.65;;;1.30;99.90;;;;;;5038094;28;20489;-50
2022/02/28 03:07:46;;;;;;;16.75;8.52;;;1.20;99.90;;;;;;5049316;28;20048;-49
2022/02/28 03:10:12;;;;;;;15.98;8.45;;;1.10;99.90;;;;;;5051272;28;20052;-48
2022/02/28 03:12:39;;;;;;;14.18;7.95;;;1.10;99.90;;;;;;5051215;28;20045;-49
2022/02/28 03:15:06;;;;;;;19.30;8.45;;;1.00;99.90;;;;;;5049743;28;20517;-50
2022/02/28 03:17:32;;;;;;;15.65;8.05;;;1.00;99.90;;;;;;5050984;28;20048;-48
2022/02/28 03:19:58;;;;;;;14.07;7.75;;;1.00;99.90;;;;;;5028495;28;20029;-48
2022/02/28 03:22:24;;;;;;;16.85;8.73;;;1.00;99.90;;;;;;5042610;28;20041;-48
2022/02/28 03:24:49;;;;;;;15.45;8.07;;;1.10;99.90;;;;;;5051049;28;20387;-49
2022/02/28 03:27:15;;;;;;;17.77;7.78;;;1.20;99.90;;;;;;5050903;28;20041;-51
2022/02/28 03:29:40;;;;;;;16.17;7.78;;;1.20;99.90;;;;;;5047507;28;20037;-50
2022/02/28 03:32:06;;;;;;;18.02;9.32;;;1.30;99.90;;;;;;5050374;28;20037;-48
2022/02/28 03:34:32;;;;;;;15.57;8.05;;;1.30;99.90;;;;;;5058218;28;20037;-49
2022/02/28 03:36:58;;;;;;;18.85;8.57;;;1.30;99.90;;;;;;5052679;28;20048;-48
2022/02/28 03:39:24;;;;;;;20.27;8.77;;;1.30;99.90;;;;;;5054592;28;20041;-48
2022/02/28 03:41:53;;;;;;;18.58;9.20;;;1.30;99.90;;;;;;5054726;28;20047;-48
2022/02/28 03:44:19;;;;;;;14.55;8.40;;;1.30;99.90;;;;;;5050083;28;20099;-48
2022/02/28 03:46:45;;;;;;;17.17;8.77;;;1.20;99.90;;;;;;5057076;28;20076;-48
2022/02/28 03:49:11;;;;;;;18.55;8.85;;;1.20;99.90;;;;;;5044267;28;20068;-48
2022/02/28 03:51:36;;;;;;;20.00;9.23;;;1.10;99.90;;;;;;5054597;28;20040;-48
2022/02/28 03:54:02;;;;;;;17.40;8.65;;;1.10;99.90;;;;;;5054229;28;20432;-48
2022/02/28 03:56:27;;;;;;;17.13;9.07;;;1.00;99.90;;;;;;5054013;28;20158;-48
2022/02/28 03:58:53;;;;;;;13.75;8.77;;;1.00;99.90;;;;;;5054417;28;20539;-48
2022/02/28 04:01:18;;;;;;;16.85;8.63;;;1.00;99.90;;;;;;5054373;28;20037;-48
2022/02/28 04:03:44;;;;;;;17.13;9.25;;;1.00;99.90;;;;;;5053832;28;20094;-51
2022/02/28 04:06:10;;;;;;;17.00;9.82;;;1.00;99.90;;;;;;5054111;28;20051;-51
2022/02/28 04:08:36;;;;;;;19.33;8.77;;;1.00;99.90;;;;;;5036434;28;20040;-51
2022/02/28 04:11:02;;;;;;;15.50;8.35;;;1.00;99.90;;;;;;5054137;28;20562;-51
2022/02/28 04:13:28;;;;;;;19.35;8.45;;;1.00;99.90;;;;;;5053960;28;20037;-51
2022/02/28 04:15:53;;;;;;;20.15;9.52;;;1.10;99.90;;;;;;5053956;28;20041;-52
2022/02/28 04:18:19;;;;;;;18.20;9.15;;;1.00;99.90;;;;;;5053381;28;20455;-49
2022/02/28 04:20:47;;;;;;;20.90;8.77;;;1.00;99.90;;;;;;5052496;28;20041;-51
2022/02/28 04:23:12;;;;;;;20.05;9.48;;;1.00;99.90;;;;;;5053796;28;20044;-52
2022/02/28 04:25:38;;;;;;;21.00;9.90;;;1.00;99.90;;;;;;5050773;28;20033;-52
2022/02/28 04:28:04;;;;;;;16.08;9.15;;;0.90;99.90;;;;;;5046859;28;20117;-50
2022/02/28 04:30:29;;;;;;;16.55;9.55;;;0.80;99.90;;;;;;5052996;28;20077;-50
2022/02/28 04:32:55;;;;;;;19.27;8.93;;;0.80;99.90;;;;;;5054028;28;20037;-48
2022/02/28 04:35:21;;;;;;;15.82;9.25;;;0.80;99.90;;;;;;5052477;28;20048;-54
2022/02/28 04:37:47;;;;;;;21.10;10.02;;;0.70;99.90;;;;;;5053447;28;20033;-50
2022/02/28 04:40:13;;;;;;;18.27;9.50;;;0.70;99.90;;;;;;5051967;28;20116;-51
2022/02/28 04:42:39;;;;;;;16.60;9.07;;;0.60;99.90;;;;;;5053622;28;20142;-52
2022/02/28 04:45:06;;;;;;;20.00;9.77;;;0.60;99.90;;;;;;5052745;28;20131;-49
2022/02/28 04:47:31;;;;;;;16.90;9.50;;;0.60;99.90;;;;;;5052236;28;20370;-52
2022/02/28 04:49:57;;;;;;;18.30;9.48;;;0.60;99.90;;;;;;5052959;28;20033;-52
2022/02/28 04:52:23;;;;;;;20.13;10.15;;;0.60;99.90;;;;;;5053328;28;20063;-52
2022/02/28 04:54:48;;;;;;;16.95;8.70;;;0.60;99.90;;;;;;5053239;28;20037;-50
2022/02/28 04:57:14;;;;;;;16.92;9.73;;;0.60;99.90;;;;;;5052891;28;20040;-52
2022/02/28 04:59:41;;;;;;;14.85;8.77;;;0.50;99.90;;;;;;5052383;28;20025;-52
2022/02/28 05:02:07;;;;;;;14.38;8.73;;;0.40;99.90;;;;;;5053037;28;20059;-47
2022/02/28 05:04:32;;;;;;;20.50;9.13;;;0.40;99.90;;;;;;5053316;28;20040;-52
2022/02/28 05:06:58;;;;;;;20.00;9.52;;;0.50;99.90;;;;;;5052888;28;20095;-53
2022/02/28 05:09:23;;;;;;;16.58;9.57;;;0.40;99.90;;;;;;5052481;28;20055;-48
2022/02/28 05:11:49;;;;;;;20.60;8.75;;;0.30;99.90;;;;;;5052680;28;20033;-48
2022/02/28 05:14:14;;;;;;;18.88;9.95;;;0.30;99.90;;;;;;5052478;28;20462;-50
2022/02/28 05:16:41;;;;;;;15.38;8.88;;;0.30;99.90;;;;;;5052424;28;20044;-50
2022/02/28 05:19:07;;;;;;;17.92;9.45;;;0.20;99.90;;;;;;5052900;28;20394;-49
2022/02/28 05:21:35;;;;;;;15.70;9.18;;;0.20;99.90;;;;;;5052945;28;20040;-48
2022/02/28 05:24:01;;;;;;;17.17;8.80;;;0.10;99.90;;;;;;5052643;28;20161;-48
2022/02/28 05:26:26;;;;;;;19.70;9.65;;;0.20;99.90;;;;;;5052553;28;20114;-49
2022/02/28 05:28:52;;;;;;;17.10;9.32;;;0.20;99.90;;;;;;5051287;28;20517;-49
2022/02/28 05:31:18;;;;;;;17.85;9.15;;;0.10;99.90;;;;;;5052236;28;20317;-48
2022/02/28 05:33:43;;;;;;;19.17;10.10;;;0.20;99.90;;;;;;5052049;28;20051;-48
2022/02/28 05:36:09;;;;;;;18.42;9.55;;;0.20;99.90;;;;;;5052440;28;20505;-49
2022/02/28 05:38:35;;;;;;;17.73;9.23;;;0.20;99.90;;;;;;5052514;28;20040;-49
2022/02/28 05:41:00;;;;;;;18.15;9.23;;;0.30;99.90;;;;;;5052220;28;20041;-50
2022/02/28 05:43:27;;;;;;;18.50;9.73;;;0.30;99.90;;;;;;5052300;28;20076;-48
2022/02/28 05:45:52;;;;;;;18.15;9.48;;;0.30;99.90;;;;;;5051738;28;20037;-49
2022/02/28 05:48:18;;;;;;;17.80;9.43;;;0.20;99.90;;;;;;5051768;28;20090;-47
2022/02/28 05:50:43;;;;;;;15.25;9.43;;;0.30;99.90;;;;;;5052199;28;20045;-52
2022/02/28 05:53:09;;;;;;;20.90;9.80;;;0.30;99.90;;;;;;5050820;28;20037;-50
2022/02/28 05:55:36;;;;;;;19.02;9.20;;;0.30;99.90;;;;;;5052206;28;20048;-48
2022/02/28 05:58:02;;;;;;;17.48;8.90;;;0.30;99.90;;;;;;5041605;28;20039;-52
2022/02/28 06:00:28;;;;;;;18.42;8.70;;;0.30;99.90;;;;;;5046182;28;20037;-50
2022/02/28 06:02:54;;;;;;;17.08;9.05;;;0.40;99.90;;;;;;5050292;28;20037;-52
2022/02/28 06:05:20;;;;;;;17.67;9.05;;;0.40;99.90;;;;;;5049843;28;20081;-50
2022/02/28 06:07:47;;;;;;;15.73;8.82;;;0.40;99.90;;;;;;5051687;28;20036;-50
2022/02/28 06:10:13;;;;;;;17.30;8.65;;;0.40;99.90;;;;;;5033743;28;20047;-50
2022/02/28 06:12:38;;;;;;;15.90;8.50;;;0.40;99.90;;;;;;5051544;28;20033;-51
2022/02/28 06:15:05;;;;;;;20.05;9.38;;;0.40;99.90;;;;;;5051394;28;20041;-49
2022/02/28 06:17:32;;;;;;;19.08;9.10;;;0.40;99.90;;;;;;5050492;28;20044;-49
2022/02/28 06:19:58;;;;;;;18.20;9.10;;;0.50;99.90;;;;;;5049841;28;20045;-51
2022/02/28 06:22:23;;;;;;;18.60;9.75;;;0.50;99.90;;;;;;5048232;28;20116;-48
2022/02/28 06:24:49;;;;;;;22.60;11.40;;;0.50;99.90;;;;;;5045363;28;20052;-49
2022/02/28 06:27:15;;;;;;;18.35;9.90;;;0.50;99.90;;;;;;5047009;28;20044;-49
2022/02/28 06:29:42;;;;;;;21.08;9.30;;;0.40;99.90;;;;;;5043997;28;20040;-50
2022/02/28 06:32:08;;;;;;;19.10;9.60;;;0.30;99.90;;;;;;5047806;28;20498;-48
2022/02/28 06:34:34;;;;;;;16.33;8.85;;;0.30;99.90;;;;;;5046973;28;20028;-48
2022/02/28 06:36:59;;;;;;;17.98;9.07;;;0.20;99.90;;;;;;5062489;28;20068;-48
2022/02/28 06:39:26;;;;;;;14.50;8.65;;;0.10;99.90;;;;;;5051303;28;20501;-47
2022/02/28 06:41:51;;;;;;;19.17;9.60;;;0.20;99.90;;;;;;5051345;28;20049;-48
2022/02/28 06:44:17;;;;;;;16.85;9.55;;;0.30;99.90;;;;;;5049832;28;20059;-50
2022/02/28 06:46:43;;;;;;;18.13;9.68;;;0.30;99.90;;;;;;5048690;28;20041;-48
2022/02/28 06:49:09;;;;;;;21.75;9.75;;;0.20;99.90;;;;;;5050300;28;20559;-47
2022/02/28 06:51:35;;;;;;;21.25;9.93;;;0.30;99.90;;;;;;5032941;28;20056;-50
2022/02/28 06:54:00;;;;;;;19.20;9.65;;;0.30;99.90;;;;;;5050843;28;20033;-49
2022/02/28 06:56:26;;;;;;;19.33;9.25;;;0.40;99.90;;;;;;5051192;28;20052;-47
2022/02/28 06:58:51;;;;;;;24.90;9.52;;;0.40;99.90;;;;;;5051100;28;20044;-48
2022/02/28 07:01:17;;;;;;;18.80;9.23;;;0.30;99.90;;;;;;5033459;28;20048;-48
2022/02/28 07:03:43;;;;;;;17.00;9.30;;;0.30;99.90;;;;;;5050125;28;20037;-48
2022/02/28 07:06:11;;;;;;;18.75;8.93;;;0.40;99.90;;;;;;5051147;28;20037;-49
2022/02/28 07:08:38;;;;;;;17.67;10.13;;;0.50;99.90;;;;;;5051068;28;20048;-47
2022/02/28 07:11:04;;;;;;;18.50;9.57;;;0.50;99.90;;;;;;5051789;28;20048;-50
2022/02/28 07:13:32;;;;;;;16.60;8.80;;;0.60;99.90;;;;;;5055033;28;20053;-48
2022/02/28 07:15:58;;;;;;;18.90;8.77;;;0.60;99.90;;;;;;5033909;28;20094;-51
2022/02/28 07:18:23;;;;;;;16.48;9.13;;;0.70;99.90;;;;;;5045416;28;20033;-48
2022/02/28 07:20:49;;;;;;;16.98;8.95;;;0.70;99.90;;;;;;5055139;28;20485;-47
2022/02/28 07:23:14;;;;;;;16.38;9.85;;;0.80;99.90;;;;;;5054947;28;20068;-47
2022/02/28 07:25:40;;;;;;;18.08;8.90;;;0.80;99.90;;;;;;5054907;28;20044;-50
2022/02/28 07:28:06;;;;;;;19.48;10.50;;;0.90;99.90;;;;;;5054505;28;20033;-52
2022/02/28 07:30:32;;;;;;;21.20;10.65;;;0.90;99.90;;;;;;5054999;28;20128;-50
2022/02/28 07:32:57;;;;;;;17.00;9.35;;;1.00;99.90;;;;;;5054975;28;20087;-48
2022/02/28 07:35:23;;;;;;;22.70;10.70;;;1.10;99.90;;;;;;5054742;28;20080;-49
2022/02/28 07:37:48;;;;;;;17.58;9.40;;;1.20;99.90;;;;;;5054603;28;20076;-48
2022/02/28 07:40:14;;;;;;;19.77;9.38;;;1.30;99.90;;;;;;5054495;28;20033;-50
2022/02/28 07:42:40;;;;;;;18.73;9.70;;;1.40;99.90;;;;;;5054282;28;20045;-47
2022/02/28 07:45:07;;;;;;;16.17;8.63;;;1.50;99.90;;;;;;5054655;28;20044;-51
2022/02/28 07:47:33;;;;;;;15.23;8.45;;;1.60;99.90;;;;;;5054626;28;20170;-51
2022/02/28 07:49:59;;;;;;;16.17;9.35;;;1.70;99.90;;;;;;5054548;28;20132;-50
2022/02/28 07:52:26;;;;;;;14.65;9.00;;;1.80;99.90;;;;;;5053194;28;20048;-52
2022/02/28 07:54:51;;;;;;;14.35;8.48;;;2.00;99.90;;;;;;5052927;28;20032;-52
2022/02/28 07:57:17;;;;;;;17.60;9.40;;;2.10;99.90;;;;;;5054015;28;20036;-53
2022/02/28 07:59:42;;;;;;;18.15;8.88;;;2.30;99.90;;;;;;5041438;28;20401;-51
2022/02/28 08:02:08;;;;;;;16.85;9.05;;;2.40;99.90;;;;;;5044075;28;20158;-48
2022/02/28 08:04:34;;;;;;;17.92;9.20;;;2.50;99.90;;;;;;5054035;28;20082;-49
2022/02/28 08:07:00;;;;;;;17.60;9.38;;;2.60;99.90;;;;;;5053405;28;20041;-50
2022/02/28 08:09:26;;;;;;;19.10;9.52;;;2.70;99.90;;;;;;5054028;28;20048;-51
2022/02/28 08:11:53;;;;;;;15.65;9.45;;;2.80;99.90;;;;;;5052820;28;20041;-50
2022/02/28 08:14:18;;;;;;;23.40;9.20;;;3.00;99.90;;;;;;5042801;28;20394;-50
2022/02/28 08:16:44;;;;;;;18.02;8.73;;;3.00;99.90;;;;;;5059427;28;20091;-51
2022/02/28 08:19:09;;;;;;;19.80;10.05;;;3.30;99.90;;;;;;5059553;28;20065;-51
2022/02/28 08:21:35;;;;;;;18.38;9.15;;;3.20;99.90;;;;;;5044970;28;20055;-50
2022/02/28 08:24:01;;;;;;;19.05;9.60;;;3.30;99.90;;;;;;5053340;28;20409;-49
2022/02/28 08:26:26;;;;;;;18.73;9.10;;;3.30;99.90;;;;;;5064988;28;20044;-52
2022/02/28 08:28:52;;;;;;;16.77;9.00;;;3.40;99.90;;;;;;5073712;28;20047;-51
2022/02/28 08:31:17;;;;;;;18.77;9.68;;;3.50;99.90;;;;;;5073687;28;20044;-50
2022/02/28 08:33:43;;;;;;;18.85;9.43;;;3.50;99.90;;;;;;5073560;28;20063;-51
2022/02/28 08:36:08;;;;;;;18.30;9.93;;;3.60;99.90;;;;;;5072041;28;20037;-52
2022/02/28 08:38:34;;;;;;;19.95;9.15;;;3.60;99.90;;;;;;5053379;28;20513;-49
2022/02/28 08:41:00;;;;;;;15.38;9.13;;;3.70;99.90;;;;;;5054361;28;20067;-49
2022/02/28 08:43:26;;;;;;;19.92;9.77;;;3.90;99.90;;;;;;5065851;28;20125;-52
2022/02/28 08:45:52;;;;;;;15.15;8.80;;;3.90;99.90;;;;;;5073496;28;20041;-52
2022/02/28 08:48:18;;;;;;;14.45;8.88;;;4.00;99.90;;;;;;5073221;28;20048;-52
2022/02/28 08:50:44;;;;;;;14.43;8.98;;;4.10;99.90;;;;;;5072677;28;20129;-51
2022/02/28 08:53:10;;;;;;;16.02;9.25;;;4.20;99.90;;;;;;5053074;28;20037;-52
2022/02/28 08:55:35;;;;;;;18.20;8.60;;;4.30;99.90;;;;;;5051830;28;20048;-52
2022/02/28 08:58:01;;;;;;;17.02;8.57;;;4.40;99.90;;;;;;5052878;28;20486;-52
2022/02/28 09:00:28;;;;;;;14.63;8.70;;;4.40;99.90;;;;;;5053220;28;20044;-51
2022/02/28 09:02:53;;;;;;;15.05;9.13;;;4.50;99.90;;;;;;5053110;28;20472;-50
2022/02/28 09:05:19;;;;;;;16.60;8.88;;;4.60;99.90;;;;;;5051637;28;20116;-51
2022/02/28 09:07:46;;;;;;;18.40;9.02;;;4.70;99.90;;;;;;5052610;28;20072;-52
2022/02/28 09:10:12;;;;;;;16.20;8.82;;;4.70;99.90;;;;;;5051918;28;20053;-52
2022/02/28 09:12:38;;;;;;;13.95;8.10;;;4.90;99.90;;;;;;5053109;28;20041;-52
2022/02/28 09:15:05;;;;;;;15.10;9.15;;;5.00;99.10;;;;;;5053005;28;20397;-52
2022/02/28 09:17:32;;;;;;;16.77;8.85;;;5.00;99.00;;;;;;5064190;28;20039;-51
2022/02/28 09:19:58;;;;;;;14.75;8.60;;;5.10;98.70;;;;;;5068953;28;20040;-52
2022/02/28 09:22:24;;;;;;;14.77;8.27;;;5.10;98.50;;;;;;5052655;28;20048;-51
2022/02/28 09:24:50;;;;;;;16.98;8.90;;;5.20;97.90;;;;;;5052829;28;20044;-53
2022/02/28 09:27:15;;;;;;;16.00;8.50;;;5.30;97.30;;;;;;5052511;28;20107;-50
2022/02/28 09:29:41;;;;;;;13.68;7.95;;;5.40;96.30;;;;;;5052718;28;20517;-52
2022/02/28 09:32:07;;;;;;;15.68;8.63;;;5.50;95.70;;;;;;5052541;28;20082;-52
2022/02/28 09:34:33;;;;;;;15.82;8.80;;;5.50;95.20;;;;;;5051706;28;20043;-52
2022/02/28 09:36:59;;;;;;;15.70;8.52;;;5.50;95.60;;;;;;5034506;28;20041;-51
2022/02/28 09:39:25;;;;;;;16.33;8.68;;;5.60;96.50;;;;;;5052557;28;20144;-52
2022/02/28 09:41:53;;;;;;;15.55;8.48;;;5.70;94.90;;;;;;5052353;28;20469;-50
2022/02/28 09:44:21;;;;;;;14.80;8.43;;;5.70;94.50;;;;;;5052261;28;20120;-49
2022/02/28 09:46:47;;;;;;;15.40;8.02;;;5.80;94.00;;;;;;5052427;28;20044;-52
2022/02/28 09:49:14;;;;;;;17.65;8.60;;;5.90;93.60;;;;;;5052038;28;20052;-48
2022/02/28 09:51:40;;;;;;;22.80;8.00;;;5.90;92.70;;;;;;5051832;28;20178;-53
2022/02/28 09:54:06;;;;;;;14.35;8.32;;;6.00;92.60;;;;;;5052269;28;20089;-51
2022/02/28 09:56:33;;;;;;;14.75;7.47;;;6.00;92.30;;;;;;5053232;28;20406;-50
2022/02/28 09:58:59;;;;;;;15.85;9.18;;;6.10;90.90;;;;;;5063685;28;20029;-53
2022/02/28 10:01:25;;;;;;;13.13;8.23;;;6.10;91.30;;;;;;5072024;28;20036;-53
2022/02/28 10:03:51;;;;;;;12.98;8.07;;;6.10;90.50;;;;;;5059247;28;20110;-52
2022/02/28 10:06:16;;;;;;;17.20;8.50;;;6.20;90.70;;;;;;5051450;28;20033;-52
2022/02/28 10:08:47;;;;;;;13.02;7.25;;;6.20;91.50;;;;;;5051775;28;20086;-52
2022/02/28 10:11:49;;;;;;;14.00;8.18;;;6.30;89.30;;;;;;5051870;28;20045;-52
2022/02/28 10:14:15;;;;;;;14.20;8.30;;;6.40;88.60;;;;;;5009749;28;20045;-52
2022/02/28 10:16:46;;;;;;;13.88;7.88;;;6.40;87.90;;;;;;5042980;28;20497;-48
2022/02/28 10:19:14;;;;;;;16.05;8.75;;;6.50;88.80;;;;;;5052035;28;20096;-49
2022/02/28 10:21:51;;;;;;;14.68;8.48;;;6.50;86.80;;;;;;5051851;28;20143;-51
2022/02/28 10:24:26;;;;;;;17.92;8.57;;;6.60;86.30;;;;;;5050468;28;20041;-53
2022/02/28 10:26:57;;;;;;;15.18;8.45;;;6.60;85.70;;;;;;5051333;28;20065;-53
2022/02/28 10:29:25;;;;;;;14.48;8.07;;;6.70;85.50;;;;;;5051847;28;20037;-49
2022/02/28 10:31:50;;;;;;;14.52;8.77;;;6.80;83.30;;;;;;5051372;28;20033;-52
2022/02/28 10:34:22;;;;;;;13.25;7.90;;;6.80;81.70;;;;;;5051588;28;20587;-49
2022/02/28 10:36:59;;;;;;;12.05;7.18;;;6.80;81.30;;;;;;5051324;28;20033;-51
2022/02/28 10:39:37;;;;;;;16.15;7.78;;;6.80;81.10;;;;;;5050322;28;20378;-53
2022/02/28 10:42:15;;;;;;;14.50;8.75;;;6.90;79.20;;;;;;5051627;28;20115;-49
2022/02/28 10:44:42;;;;;;;13.65;7.97;;;6.90;82.20;;;;;;5051529;28;20044;-49
2022/02/28 10:47:10;;;;;;;14.65;8.77;;;7.10;78.90;;;;;;5050164;28;20456;-49
2022/02/28 10:49:38;;;;;;;12.07;7.68;;;7.10;80.20;;;;;;5051352;28;20493;-50
2022/02/28 10:52:10;;;;;;;12.73;7.60;;;7.10;81.00;;;;;;5051093;28;20041;-50
2022/02/28 10:54:37;;;;;;;13.53;8.37;;;7.20;78.60;;;;;;5050218;28;20044;-50
2022/02/28 10:57:17;;;;;;;15.25;8.13;;;7.30;76.50;;;;;;5051139;28;20079;-49
2022/02/28 10:59:52;;;;;;;12.60;7.90;;;7.30;78.40;;;;;;5051227;28;20037;-49
2022/02/28 11:02:29;;;;;;;17.45;8.10;;;7.40;77.50;;;;;;5051198;28;20041;-49
2022/02/28 11:05:04;;;;;;;13.80;7.88;;;7.40;78.20;;;;;;5051024;28;20049;-49
2022/02/28 11:07:30;;;;;;;15.05;7.97;;;7.50;77.80;;;;;;5050773;28;20044;-49
2022/02/28 11:09:58;;;;;;;12.40;8.35;;;7.60;77.90;;;;;;5051186;28;20036;-49
2022/02/28 11:12:29;;;;;;;13.63;7.93;;;7.60;77.50;;;;;;5051576;28;20037;-49
2022/02/28 11:14:57;;;;;;;13.85;8.35;;;7.70;76.40;;;;;;5051149;28;20125;-49
2022/02/28 11:17:31;;;;;;;12.82;7.90;;;7.70;75.50;;;;;;5050056;28;20029;-49
2022/02/28 11:19:59;;;;;;;13.27;8.20;;;8.10;73.60;;;;;;5051623;28;20124;-52
2022/02/28 11:22:26;;;;;;;14.98;8.48;;;7.80;72.60;;;;;;5033216;28;20072;-49
2022/02/28 11:24:53;;;;;;;14.18;8.25;;;7.80;72.90;;;;;;5050855;28;20547;-49
2022/02/28 11:27:21;;;;;;;12.68;7.22;;;7.80;72.30;;;;;;5050970;28;20094;-49
2022/02/28 11:29:55;;;;;;;14.35;7.60;;;7.90;72.00;;;;;;5051205;28;20045;-50
2022/02/28 11:32:26;;;;;;;14.65;8.05;;;7.90;71.00;;;;;;5049865;28;20048;-50
2022/02/28 11:34:53;;;;;;;13.82;8.85;;;8.00;71.50;;;;;;5051411;28;20086;-49
2022/02/28 11:37:25;;;;;;;12.45;7.65;;;8.00;71.70;;;;;;5051081;28;20033;-52
2022/02/28 11:40:00;;;;;;;12.95;8.75;;;8.00;72.90;;;;;;5050996;28;20037;-49
2022/02/28 11:43:02;;;;;;;16.55;9.32;;;8.10;73.40;;;;;;5051165;28;20041;-50
2022/02/28 11:45:31;;;;;;;16.40;7.80;;;8.20;70.00;;;;;;5030014;28;20129;-49
2022/02/28 11:48:15;;;;;;;14.38;8.40;;;8.20;69.50;;;;;;5030655;28;20059;-50
2022/02/28 11:51:01;;;;;;;16.00;8.70;;;8.30;68.80;;;;;;5031045;28;20037;-48
2022/02/28 11:53:58;;;;;;;17.13;8.27;;;8.30;69.40;;;;;;5030654;28;20525;-49
2022/02/28 11:56:24;;;;;;;16.60;8.52;;;8.30;70.90;;;;;;5030597;28;20049;-49
2022/02/28 11:58:55;;;;;;;15.32;8.45;;;8.30;69.80;;;;;;5048331;28;20040;-49
2022/02/28 12:01:32;;;;;;;15.07;8.85;;;8.40;69.60;;;;;;5054299;28;20048;-49
2022/02/28 12:04:17;;;;;;;14.90;9.30;;;8.40;71.40;;;;;;5054223;28;20150;-49
2022/02/28 12:07:04;;;;;;;14.68;8.25;;;8.50;70.80;;;;;;5036247;28;20041;-50
2022/02/28 12:09:33;;;;;;;14.48;8.35;;;8.50;70.10;;;;;;5054585;28;20082;-49
2022/02/28 12:12:12;;;;;;;13.43;9.10;;;8.60;68.80;;;;;;5053826;28;20052;-49
2022/02/28 12:15:03;;;;;;;14.18;8.70;;;8.60;70.30;;;;;;5054118;28;20106;-49
2022/02/28 12:17:50;;;;;;;17.10;9.45;;;8.60;70.00;;;;;;5053635;28;20072;-49
2022/02/28 12:20:33;;;;;;;14.32;8.25;;;8.70;67.10;;;;;;5054076;28;20116;-50
2022/02/28 12:23:03;;;;;;;15.13;8.63;;;8.70;67.50;;;;;;5053847;28;20059;-51
2022/02/28 12:25:49;;;;;;;13.10;7.97;;;8.70;67.40;;;;;;5053913;28;20072;-50
2022/02/28 12:28:34;;;;;;;15.02;8.25;;;8.80;67.30;;;;;;5045999;28;20505;-52
2022/02/28 12:31:12;;;;;;;13.50;7.72;;;8.80;65.20;;;;;;5053722;28;20091;-49
2022/02/28 12:33:38;;;;;;;12.52;7.97;;;8.80;65.50;;;;;;5053744;28;20041;-49
2022/02/28 12:36:12;;;;;;;13.40;8.65;;;8.80;65.70;;;;;;5053405;28;20048;-52
2022/02/28 12:38:40;;;;;;;14.95;8.32;;;8.90;66.60;;;;;;5053915;28;20402;-52
2022/02/28 12:41:08;;;;;;;13.43;8.00;;;8.90;66.30;;;;;;5053480;28;20108;-51
2022/02/28 12:43:35;;;;;;;13.00;8.38;;;9.00;66.20;;;;;;5053571;28;20124;-51
2022/02/28 12:46:04;;;;;;;16.35;9.07;;;9.00;66.90;;;;;;5053329;28;20051;-53
2022/02/28 12:48:31;;;;;;;14.10;7.90;;;9.10;66.90;;;;;;5053814;28;20067;-53